sensor_id;sensor_type;location;lat;lon;timestamp;temperature;humidity
33903;DHT22;20194;50.950;5.346;2023-04-03T00:00:33;6.30;3.40
33903;DHT22;20194;50.950;5.346;2023-04-03T00:02:59;6.20;5.10
33903;DHT22;20194;50.950;5.346;2023-04-03T00:05:25;6.20;5.20
33903;DHT22;20194;50.950;5.346;2023-04-03T00:07:51;6.30;4.50
33903;DHT22;20194;50.950;5.346;2023-04-03T00:10:17;6.30;3.70
33903;DHT22;20194;50.950;5.346;2023-04-03T00:12:43;6.40;2.40
33903;DHT22;20194;50.950;5.346;2023-04-03T00:15:09;6.30;2.40
33903;DHT22;20194;50.950;5.346;2023-04-03T00:17:35;6.30;2.40
33903;DHT22;20194;50.950;5.346;2023-04-03T00:20:01;6.40;2.30
33903;DHT22;20194;50.950;5.346;2023-04-03T00:22:27;6.20;4.20
33903;DHT22;20194;50.950;5.346;2023-04-03T00:24:54;6.20;4.20
33903;DHT22;20194;50.950;5.346;2023-04-03T00:27:20;6.20;3.40
33903;DHT22;20194;50.950;5.346;2023-04-03T00:29:46;6.10;4.70
33903;DHT22;20194;50.950;5.346;2023-04-03T00:32:12;6.10;6.00
33903;DHT22;20194;50.950;5.346;2023-04-03T00:34:38;5.90;8.10
33903;DHT22;20194;50.950;5.346;2023-04-03T00:37:04;5.80;9.60
33903;DHT22;20194;50.950;5.346;2023-04-03T00:39:30;5.80;10.00
33903;DHT22;20194;50.950;5.346;2023-04-03T00:41:56;5.90;8.30
33903;DHT22;20194;50.950;5.346;2023-04-03T00:45:21;5.80;10.00
33903;DHT22;20194;50.950;5.346;2023-04-03T00:47:13;5.80;9.80
33903;DHT22;20194;50.950;5.346;2023-04-03T00:49:39;5.80;9.40
33903;DHT22;20194;50.950;5.346;2023-04-03T00:52:10;5.80;8.20
33903;DHT22;20194;50.950;5.346;2023-04-03T00:54:38;5.70;8.70
33903;DHT22;20194;50.950;5.346;2023-04-03T00:57:06;5.70;9.70
33903;DHT22;20194;50.950;5.346;2023-04-03T00:59:35;5.80;9.30
33903;DHT22;20194;50.950;5.346;2023-04-03T01:02:03;5.70;8.50
33903;DHT22;20194;50.950;5.346;2023-04-03T01:04:41;5.80;9.30
33903;DHT22;20194;50.950;5.346;2023-04-03T01:09:34;5.90;7.00
33903;DHT22;20194;50.950;5.346;2023-04-03T01:12:33;5.70;7.40
33903;DHT22;20194;50.950;5.346;2023-04-03T01:15:04;5.70;7.10
33903;DHT22;20194;50.950;5.346;2023-04-03T01:17:35;5.70;8.50
33903;DHT22;20194;50.950;5.346;2023-04-03T01:25:57;5.70;6.70
33903;DHT22;20194;50.950;5.346;2023-04-03T01:28:27;5.70;7.20
33903;DHT22;20194;50.950;5.346;2023-04-03T01:30:58;5.80;7.00
33903;DHT22;20194;50.950;5.346;2023-04-03T01:33:26;5.70;5.80
33903;DHT22;20194;50.950;5.346;2023-04-03T01:35:52;5.70;5.80
33903;DHT22;20194;50.950;5.346;2023-04-03T01:38:18;5.70;5.30
33903;DHT22;20194;50.950;5.346;2023-04-03T01:40:43;5.60;7.60
33903;DHT22;20194;50.950;5.346;2023-04-03T01:43:09;5.60;7.40
33903;DHT22;20194;50.950;5.346;2023-04-03T01:45:35;5.50;7.20
33903;DHT22;20194;50.950;5.346;2023-04-03T01:48:01;5.40;9.30
33903;DHT22;20194;50.950;5.346;2023-04-03T01:50:26;5.40;10.60
33903;DHT22;20194;50.950;5.346;2023-04-03T01:52:52;5.40;10.30
33903;DHT22;20194;50.950;5.346;2023-04-03T01:55:18;5.40;9.30
33903;DHT22;20194;50.950;5.346;2023-04-03T01:57:44;5.40;11.40
33903;DHT22;20194;50.950;5.346;2023-04-03T02:00:10;5.40;10.00
33903;DHT22;20194;50.950;5.346;2023-04-03T02:02:36;5.30;10.60
33903;DHT22;20194;50.950;5.346;2023-04-03T02:05:01;5.30;12.20
33903;DHT22;20194;50.950;5.346;2023-04-03T02:07:27;5.30;12.30
33903;DHT22;20194;50.950;5.346;2023-04-03T02:09:53;5.30;12.80
33903;DHT22;20194;50.950;5.346;2023-04-03T02:12:18;5.20;14.60
33903;DHT22;20194;50.950;5.346;2023-04-03T02:14:45;5.10;15.50
33903;DHT22;20194;50.950;5.346;2023-04-03T02:17:11;5.10;17.10
33903;DHT22;20194;50.950;5.346;2023-04-03T02:19:37;5.10;17.10
33903;DHT22;20194;50.950;5.346;2023-04-03T02:22:03;4.90;19.80
33903;DHT22;20194;50.950;5.346;2023-04-03T02:24:29;4.90;20.90
33903;DHT22;20194;50.950;5.346;2023-04-03T02:26:55;4.90;20.00
33903;DHT22;20194;50.950;5.346;2023-04-03T02:29:21;5.00;18.90
33903;DHT22;20194;50.950;5.346;2023-04-03T02:31:46;5.10;17.90
33903;DHT22;20194;50.950;5.346;2023-04-03T02:34:12;5.10;15.50
33903;DHT22;20194;50.950;5.346;2023-04-03T02:36:38;5.20;13.30
33903;DHT22;20194;50.950;5.346;2023-04-03T02:39:04;5.30;10.60
33903;DHT22;20194;50.950;5.346;2023-04-03T02:41:30;5.20;11.70
33903;DHT22;20194;50.950;5.346;2023-04-03T02:44:05;5.20;12.20
33903;DHT22;20194;50.950;5.346;2023-04-03T02:46:32;5.20;11.10
33903;DHT22;20194;50.950;5.346;2023-04-03T02:48:57;5.10;11.20
33903;DHT22;20194;50.950;5.346;2023-04-03T02:51:23;5.10;8.90
33903;DHT22;20194;50.950;5.346;2023-04-03T02:53:50;5.20;10.60
33903;DHT22;20194;50.950;5.346;2023-04-03T02:56:16;5.10;9.30
33903;DHT22;20194;50.950;5.346;2023-04-03T02:58:44;5.00;10.70
33903;DHT22;20194;50.950;5.346;2023-04-03T03:01:10;5.00;12.10
33903;DHT22;20194;50.950;5.346;2023-04-03T03:03:36;5.00;10.10
33903;DHT22;20194;50.950;5.346;2023-04-03T03:06:10;5.00;10.00
33903;DHT22;20194;50.950;5.346;2023-04-03T03:08:37;5.00;10.90
33903;DHT22;20194;50.950;5.346;2023-04-03T03:11:04;5.00;10.70
33903;DHT22;20194;50.950;5.346;2023-04-03T03:13:30;4.90;10.40
33903;DHT22;20194;50.950;5.346;2023-04-03T03:15:56;4.90;10.70
33903;DHT22;20194;50.950;5.346;2023-04-03T03:18:22;4.90;9.90
33903;DHT22;20194;50.950;5.346;2023-04-03T03:20:52;4.90;9.90
33903;DHT22;20194;50.950;5.346;2023-04-03T03:23:18;4.80;10.60
33903;DHT22;20194;50.950;5.346;2023-04-03T03:25:44;4.70;9.80
33903;DHT22;20194;50.950;5.346;2023-04-03T03:28:10;4.70;11.30
33903;DHT22;20194;50.950;5.346;2023-04-03T03:30:36;4.70;11.40
33903;DHT22;20194;50.950;5.346;2023-04-03T03:33:02;4.50;11.60
33903;DHT22;20194;50.950;5.346;2023-04-03T03:35:28;4.60;12.40
33903;DHT22;20194;50.950;5.346;2023-04-03T03:37:54;4.60;13.50
33903;DHT22;20194;50.950;5.346;2023-04-03T03:40:20;4.60;11.60
33903;DHT22;20194;50.950;5.346;2023-04-03T03:42:46;4.50;10.40
33903;DHT22;20194;50.950;5.346;2023-04-03T03:45:12;4.50;14.00
33903;DHT22;20194;50.950;5.346;2023-04-03T03:47:37;4.50;14.20
33903;DHT22;20194;50.950;5.346;2023-04-03T03:50:03;4.40;15.20
33903;DHT22;20194;50.950;5.346;2023-04-03T03:52:29;4.40;13.50
33903;DHT22;20194;50.950;5.346;2023-04-03T03:54:55;4.40;16.50
33903;DHT22;20194;50.950;5.346;2023-04-03T03:57:22;4.50;15.00
33903;DHT22;20194;50.950;5.346;2023-04-03T03:59:47;4.50;14.80
33903;DHT22;20194;50.950;5.346;2023-04-03T04:02:14;4.50;14.20
33903;DHT22;20194;50.950;5.346;2023-04-03T04:04:40;4.50;13.40
33903;DHT22;20194;50.950;5.346;2023-04-03T04:07:06;4.60;12.50
33903;DHT22;20194;50.950;5.346;2023-04-03T04:09:31;4.60;12.10
33903;DHT22;20194;50.950;5.346;2023-04-03T04:11:57;4.60;11.60
33903;DHT22;20194;50.950;5.346;2023-04-03T04:14:23;4.70;10.70
33903;DHT22;20194;50.950;5.346;2023-04-03T04:16:49;4.60;11.30
33903;DHT22;20194;50.950;5.346;2023-04-03T04:19:15;4.60;10.90
33903;DHT22;20194;50.950;5.346;2023-04-03T04:21:41;4.60;11.80
33903;DHT22;20194;50.950;5.346;2023-04-03T04:24:07;4.60;10.60
33903;DHT22;20194;50.950;5.346;2023-04-03T04:26:33;4.60;12.10
33903;DHT22;20194;50.950;5.346;2023-04-03T04:28:59;4.50;11.70
33903;DHT22;20194;50.950;5.346;2023-04-03T04:31:25;4.50;12.10
33903;DHT22;20194;50.950;5.346;2023-04-03T04:33:52;4.40;13.10
33903;DHT22;20194;50.950;5.346;2023-04-03T04:36:18;4.30;16.80
33903;DHT22;20194;50.950;5.346;2023-04-03T04:38:44;4.40;16.10
33903;DHT22;20194;50.950;5.346;2023-04-03T04:41:09;4.30;16.20
33903;DHT22;20194;50.950;5.346;2023-04-03T04:43:35;4.40;16.70
33903;DHT22;20194;50.950;5.346;2023-04-03T04:46:04;4.40;15.60
33903;DHT22;20194;50.950;5.346;2023-04-03T04:48:31;4.50;14.70
33903;DHT22;20194;50.950;5.346;2023-04-03T04:50:56;4.40;15.80
33903;DHT22;20194;50.950;5.346;2023-04-03T04:53:22;4.40;16.90
33903;DHT22;20194;50.950;5.346;2023-04-03T04:55:48;4.30;17.80
33903;DHT22;20194;50.950;5.346;2023-04-03T04:58:14;4.30;17.50
33903;DHT22;20194;50.950;5.346;2023-04-03T05:00:40;4.40;17.90
33903;DHT22;20194;50.950;5.346;2023-04-03T05:03:05;4.30;19.30
33903;DHT22;20194;50.950;5.346;2023-04-03T05:05:31;4.20;20.70
33903;DHT22;20194;50.950;5.346;2023-04-03T05:07:57;4.30;20.40
33903;DHT22;20194;50.950;5.346;2023-04-03T05:10:23;4.30;21.50
33903;DHT22;20194;50.950;5.346;2023-04-03T05:12:48;4.10;22.30
33903;DHT22;20194;50.950;5.346;2023-04-03T05:15:14;4.10;23.90
33903;DHT22;20194;50.950;5.346;2023-04-03T05:17:40;4.00;24.20
33903;DHT22;20194;50.950;5.346;2023-04-03T05:20:06;3.90;26.20
33903;DHT22;20194;50.950;5.346;2023-04-03T05:22:32;3.80;26.00
33903;DHT22;20194;50.950;5.346;2023-04-03T05:24:57;3.70;29.70
33903;DHT22;20194;50.950;5.346;2023-04-03T05:27:23;3.50;32.90
33903;DHT22;20194;50.950;5.346;2023-04-03T05:29:50;3.60;31.70
33903;DHT22;20194;50.950;5.346;2023-04-03T05:32:15;3.60;32.30
33903;DHT22;20194;50.950;5.346;2023-04-03T05:34:42;3.70;33.00
33903;DHT22;20194;50.950;5.346;2023-04-03T05:37:08;3.70;29.70
33903;DHT22;20194;50.950;5.346;2023-04-03T05:39:33;3.60;32.40
33903;DHT22;20194;50.950;5.346;2023-04-03T05:41:59;3.50;34.20
33903;DHT22;20194;50.950;5.346;2023-04-03T05:44:25;3.50;34.40
33903;DHT22;20194;50.950;5.346;2023-04-03T05:46:51;3.50;35.20
33903;DHT22;20194;50.950;5.346;2023-04-03T05:49:16;3.60;34.80
33903;DHT22;20194;50.950;5.346;2023-04-03T05:51:43;3.60;34.20
33903;DHT22;20194;50.950;5.346;2023-04-03T05:54:17;3.60;34.80
33903;DHT22;20194;50.950;5.346;2023-04-03T05:56:43;3.60;35.40
33903;DHT22;20194;50.950;5.346;2023-04-03T05:59:10;3.60;35.50
33903;DHT22;20194;50.950;5.346;2023-04-03T06:01:36;3.70;36.00
33903;DHT22;20194;50.950;5.346;2023-04-03T06:04:02;3.70;34.30
33903;DHT22;20194;50.950;5.346;2023-04-03T06:06:47;3.70;35.20
33903;DHT22;20194;50.950;5.346;2023-04-03T06:09:14;3.70;34.70
33903;DHT22;20194;50.950;5.346;2023-04-03T06:11:40;3.70;34.30
33903;DHT22;20194;50.950;5.346;2023-04-03T06:14:07;3.80;35.40
33903;DHT22;20194;50.950;5.346;2023-04-03T06:16:34;3.80;34.90
33903;DHT22;20194;50.950;5.346;2023-04-03T06:19:00;3.80;34.20
33903;DHT22;20194;50.950;5.346;2023-04-03T06:21:26;3.90;35.00
33903;DHT22;20194;50.950;5.346;2023-04-03T06:23:52;4.00;34.00
33903;DHT22;20194;50.950;5.346;2023-04-03T06:26:17;4.10;33.40
33903;DHT22;20194;50.950;5.346;2023-04-03T06:28:43;4.20;32.40
33903;DHT22;20194;50.950;5.346;2023-04-03T06:31:09;4.30;33.60
33903;DHT22;20194;50.950;5.346;2023-04-03T06:33:35;4.30;30.00
33903;DHT22;20194;50.950;5.346;2023-04-03T06:36:03;4.30;29.90
33903;DHT22;20194;50.950;5.346;2023-04-03T06:38:31;4.40;29.50
33903;DHT22;20194;50.950;5.346;2023-04-03T06:40:57;4.50;30.10
33903;DHT22;20194;50.950;5.346;2023-04-03T06:43:23;4.70;26.30
33903;DHT22;20194;50.950;5.346;2023-04-03T06:45:49;4.80;26.50
33903;DHT22;20194;50.950;5.346;2023-04-03T06:48:16;4.90;24.20
33903;DHT22;20194;50.950;5.346;2023-04-03T06:50:41;5.20;23.90
33903;DHT22;20194;50.950;5.346;2023-04-03T06:53:08;5.30;19.50
33903;DHT22;20194;50.950;5.346;2023-04-03T06:55:34;5.50;18.00
33903;DHT22;20194;50.950;5.346;2023-04-03T06:58:01;5.60;12.80
33903;DHT22;20194;50.950;5.346;2023-04-03T07:00:27;5.80;15.90
33903;DHT22;20194;50.950;5.346;2023-04-03T07:02:53;6.00;13.80
33903;DHT22;20194;50.950;5.346;2023-04-03T07:05:19;6.10;9.20
33903;DHT22;20194;50.950;5.346;2023-04-03T07:07:45;6.40;6.40
33903;DHT22;20194;50.950;5.346;2023-04-03T07:10:11;6.60;3.70
33903;DHT22;20194;50.950;5.346;2023-04-03T07:12:37;6.70;1.00
33903;DHT22;20194;50.950;5.346;2023-04-03T07:15:04;6.80;1.00
33903;DHT22;20194;50.950;5.346;2023-04-03T07:17:30;7.00;1.00
33903;DHT22;20194;50.950;5.346;2023-04-03T07:19:56;7.00;1.00
33903;DHT22;20194;50.950;5.346;2023-04-03T07:22:22;7.10;1.00
33903;DHT22;20194;50.950;5.346;2023-04-03T07:24:48;7.10;1.00
33903;DHT22;20194;50.950;5.346;2023-04-03T07:27:13;7.30;1.00
33903;DHT22;20194;50.950;5.346;2023-04-03T07:29:39;7.40;1.00
33903;DHT22;20194;50.950;5.346;2023-04-03T07:32:05;7.60;1.00
33903;DHT22;20194;50.950;5.346;2023-04-03T07:34:32;7.70;1.00
33903;DHT22;20194;50.950;5.346;2023-04-03T07:36:58;7.80;1.00
33903;DHT22;20194;50.950;5.346;2023-04-03T07:39:25;8.10;1.00
33903;DHT22;20194;50.950;5.346;2023-04-03T07:41:51;8.30;1.00
33903;DHT22;20194;50.950;5.346;2023-04-03T07:44:17;8.50;1.00
33903;DHT22;20194;50.950;5.346;2023-04-03T07:46:43;8.50;1.00
33903;DHT22;20194;50.950;5.346;2023-04-03T07:49:09;8.50;1.00
33903;DHT22;20194;50.950;5.346;2023-04-03T07:51:35;8.70;1.00
33903;DHT22;20194;50.950;5.346;2023-04-03T07:54:01;8.70;1.00
33903;DHT22;20194;50.950;5.346;2023-04-03T07:56:26;8.60;1.00
33903;DHT22;20194;50.950;5.346;2023-04-03T07:58:53;8.70;1.00
33903;DHT22;20194;50.950;5.346;2023-04-03T08:01:19;8.70;1.00
33903;DHT22;20194;50.950;5.346;2023-04-03T08:03:44;8.60;1.00
33903;DHT22;20194;50.950;5.346;2023-04-03T08:06:10;8.70;1.00
33903;DHT22;20194;50.950;5.346;2023-04-03T08:08:36;9.00;1.00
33903;DHT22;20194;50.950;5.346;2023-04-03T08:11:02;9.10;1.00
33903;DHT22;20194;50.950;5.346;2023-04-03T08:13:29;8.90;1.00
33903;DHT22;20194;50.950;5.346;2023-04-03T08:15:55;9.00;1.00
33903;DHT22;20194;50.950;5.346;2023-04-03T08:18:23;9.10;1.00
33903;DHT22;20194;50.950;5.346;2023-04-03T08:20:51;9.30;1.00
33903;DHT22;20194;50.950;5.346;2023-04-03T08:23:19;9.50;1.00
33903;DHT22;20194;50.950;5.346;2023-04-03T08:25:44;9.70;1.00
33903;DHT22;20194;50.950;5.346;2023-04-03T08:28:11;9.50;1.00
33903;DHT22;20194;50.950;5.346;2023-04-03T08:30:41;9.50;1.00
33903;DHT22;20194;50.950;5.346;2023-04-03T08:33:08;9.60;1.00
33903;DHT22;20194;50.950;5.346;2023-04-03T08:35:39;9.50;1.00
33903;DHT22;20194;50.950;5.346;2023-04-03T08:38:06;9.40;1.00
33903;DHT22;20194;50.950;5.346;2023-04-03T08:40:31;9.50;1.00
33903;DHT22;20194;50.950;5.346;2023-04-03T08:45:45;9.40;1.00
33903;DHT22;20194;50.950;5.346;2023-04-03T08:48:27;9.50;1.00
33903;DHT22;20194;50.950;5.346;2023-04-03T08:50:56;10.00;1.00
33903;DHT22;20194;50.950;5.346;2023-04-03T08:53:26;10.40;1.00
33903;DHT22;20194;50.950;5.346;2023-04-03T08:55:55;10.50;1.00
33903;DHT22;20194;50.950;5.346;2023-04-03T08:58:33;10.40;1.00
33903;DHT22;20194;50.950;5.346;2023-04-03T09:01:06;10.40;1.00
33903;DHT22;20194;50.950;5.346;2023-04-03T09:03:38;10.50;1.00
33903;DHT22;20194;50.950;5.346;2023-04-03T09:06:11;10.80;1.00
33903;DHT22;20194;50.950;5.346;2023-04-03T09:17:09;11.00;99.90
33903;DHT22;20194;50.950;5.346;2023-04-03T09:19:58;10.90;99.90
33903;DHT22;20194;50.950;5.346;2023-04-03T09:22:25;11.00;99.90
33903;DHT22;20194;50.950;5.346;2023-04-03T09:25:15;10.70;99.90
33903;DHT22;20194;50.950;5.346;2023-04-03T09:27:41;10.50;99.90
33903;DHT22;20194;50.950;5.346;2023-04-03T09:30:16;10.60;99.90
33903;DHT22;20194;50.950;5.346;2023-04-03T09:32:45;10.70;99.90
33903;DHT22;20194;50.950;5.346;2023-04-03T09:37:51;11.40;99.90
33903;DHT22;20194;50.950;5.346;2023-04-03T09:42:53;11.50;99.90
33903;DHT22;20194;50.950;5.346;2023-04-03T09:45:46;11.60;99.90
33903;DHT22;20194;50.950;5.346;2023-04-03T09:55:52;11.90;99.90
33903;DHT22;20194;50.950;5.346;2023-04-03T09:58:27;11.80;99.90
33903;DHT22;20194;50.950;5.346;2023-04-03T10:01:02;11.60;1.00
33903;DHT22;20194;50.950;5.346;2023-04-03T10:03:35;11.50;1.00
33903;DHT22;20194;50.950;5.346;2023-04-03T10:06:05;11.00;1.00
33903;DHT22;20194;50.950;5.346;2023-04-03T10:08:59;11.00;99.90
33903;DHT22;20194;50.950;5.346;2023-04-03T10:11:26;11.10;1.00
33903;DHT22;20194;50.950;5.346;2023-04-03T10:13:55;11.20;50.90
33903;DHT22;20194;50.950;5.346;2023-04-03T10:16:29;11.40;99.90
33903;DHT22;20194;50.950;5.346;2023-04-03T10:19:03;11.40;99.90
33903;DHT22;20194;50.950;5.346;2023-04-03T10:24:33;11.50;1.00
33903;DHT22;20194;50.950;5.346;2023-04-03T10:27:26;11.60;1.00
33903;DHT22;20194;50.950;5.346;2023-04-03T10:41:33;11.50;1.00
33903;DHT22;20194;50.950;5.346;2023-04-03T10:44:03;11.60;1.00
33903;DHT22;20194;50.950;5.346;2023-04-03T10:49:10;11.60;99.90
33903;DHT22;20194;50.950;5.346;2023-04-03T10:52:02;11.50;99.90
33903;DHT22;20194;50.950;5.346;2023-04-03T10:57:03;11.70;99.90
33903;DHT22;20194;50.950;5.346;2023-04-03T10:59:33;11.80;1.00
33903;DHT22;20194;50.950;5.346;2023-04-03T11:02:25;11.90;99.90
33903;DHT22;20194;50.950;5.346;2023-04-03T11:04:54;11.80;99.90
33903;DHT22;20194;50.950;5.346;2023-04-03T11:07:26;11.60;1.00
33903;DHT22;20194;50.950;5.346;2023-04-03T11:10:22;11.60;1.00
33903;DHT22;20194;50.950;5.346;2023-04-03T11:12:55;11.70;99.90
33903;DHT22;20194;50.950;5.346;2023-04-03T11:15:24;11.70;1.00
33903;DHT22;20194;50.950;5.346;2023-04-03T11:18:06;11.60;99.90
33903;DHT22;20194;50.950;5.346;2023-04-03T11:20:35;11.30;99.90
33903;DHT22;20194;50.950;5.346;2023-04-03T11:23:15;11.20;99.90
33903;DHT22;20194;50.950;5.346;2023-04-03T11:25:46;11.30;25.30
33903;DHT22;20194;50.950;5.346;2023-04-03T11:28:15;11.40;99.90
33903;DHT22;20194;50.950;5.346;2023-04-03T11:35:52;11.50;99.90
33903;DHT22;20194;50.950;5.346;2023-04-03T11:38:32;11.50;1.00
33903;DHT22;20194;50.950;5.346;2023-04-03T11:41:03;11.50;99.90
33903;DHT22;20194;50.950;5.346;2023-04-03T11:43:32;11.40;1.00
33903;DHT22;20194;50.950;5.346;2023-04-03T11:46:03;11.50;24.90
33903;DHT22;20194;50.950;5.346;2023-04-03T11:50:57;11.40;1.00
33903;DHT22;20194;50.950;5.346;2023-04-03T11:53:29;11.20;99.90
33903;DHT22;20194;50.950;5.346;2023-04-03T11:56:45;11.30;1.00
33903;DHT22;20194;50.950;5.346;2023-04-03T12:01:46;11.40;99.90
33903;DHT22;20194;50.950;5.346;2023-04-03T12:04:14;11.30;1.00
33903;DHT22;20194;50.950;5.346;2023-04-03T12:06:47;11.40;1.00
33903;DHT22;20194;50.950;5.346;2023-04-03T12:11:52;11.30;99.90
33903;DHT22;20194;50.950;5.346;2023-04-03T12:14:22;11.40;99.90
33903;DHT22;20194;50.950;5.346;2023-04-03T12:16:50;11.50;1.00
33903;DHT22;20194;50.950;5.346;2023-04-03T12:27:14;11.40;1.00
33903;DHT22;20194;50.950;5.346;2023-04-03T12:32:55;11.40;47.00
33903;DHT22;20194;50.950;5.346;2023-04-03T12:36:04;11.20;7.20
33903;DHT22;20194;50.950;5.346;2023-04-03T12:38:44;11.20;99.90
33903;DHT22;20194;50.950;5.346;2023-04-03T12:41:23;11.40;99.90
33903;DHT22;20194;50.950;5.346;2023-04-03T12:46:51;11.40;1.00
33903;DHT22;20194;50.950;5.346;2023-04-03T12:51:54;11.30;99.90
33903;DHT22;20194;50.950;5.346;2023-04-03T12:54:36;11.20;1.00
33903;DHT22;20194;50.950;5.346;2023-04-03T12:59:36;10.90;1.00
33903;DHT22;20194;50.950;5.346;2023-04-03T13:02:02;11.10;99.90
33903;DHT22;20194;50.950;5.346;2023-04-03T13:04:29;11.10;1.00
33903;DHT22;20194;50.950;5.346;2023-04-03T13:06:56;11.10;1.00
33903;DHT22;20194;50.950;5.346;2023-04-03T13:09:28;11.20;99.90
33903;DHT22;20194;50.950;5.346;2023-04-03T13:12:13;11.40;99.90
33903;DHT22;20194;50.950;5.346;2023-04-03T13:14:40;11.10;99.90
33903;DHT22;20194;50.950;5.346;2023-04-03T13:17:14;11.00;79.40
33903;DHT22;20194;50.950;5.346;2023-04-03T13:19:42;11.00;1.00
33903;DHT22;20194;50.950;5.346;2023-04-03T13:22:23;11.10;99.90
33903;DHT22;20194;50.950;5.346;2023-04-03T13:24:52;11.20;1.00
33903;DHT22;20194;50.950;5.346;2023-04-03T13:27:19;11.30;1.00
33903;DHT22;20194;50.950;5.346;2023-04-03T13:29:53;11.20;60.40
33903;DHT22;20194;50.950;5.346;2023-04-03T13:32:25;11.40;97.50
33903;DHT22;20194;50.950;5.346;2023-04-03T13:34:52;11.50;1.00
33903;DHT22;20194;50.950;5.346;2023-04-03T13:37:22;11.70;1.00
33903;DHT22;20194;50.950;5.346;2023-04-03T13:40:18;11.60;99.90
33903;DHT22;20194;50.950;5.346;2023-04-03T13:42:43;11.60;99.90
33903;DHT22;20194;50.950;5.346;2023-04-03T13:45:30;11.70;1.00
33903;DHT22;20194;50.950;5.346;2023-04-03T13:48:20;11.60;99.90
33903;DHT22;20194;50.950;5.346;2023-04-03T13:50:56;11.60;1.00
33903;DHT22;20194;50.950;5.346;2023-04-03T13:53:22;11.40;99.90
33903;DHT22;20194;50.950;5.346;2023-04-03T13:58:31;11.50;99.90
33903;DHT22;20194;50.950;5.346;2023-04-03T14:03:46;11.10;1.00
33903;DHT22;20194;50.950;5.346;2023-04-03T14:06:15;11.30;99.90
33903;DHT22;20194;50.950;5.346;2023-04-03T14:08:41;11.40;1.00
33903;DHT22;20194;50.950;5.346;2023-04-03T14:11:16;11.40;51.30
33903;DHT22;20194;50.950;5.346;2023-04-03T14:13:43;11.50;99.90
33903;DHT22;20194;50.950;5.346;2023-04-03T14:16:18;11.60;99.90
33903;DHT22;20194;50.950;5.346;2023-04-03T14:18:45;11.60;99.90
33903;DHT22;20194;50.950;5.346;2023-04-03T14:21:14;11.50;99.90
33903;DHT22;20194;50.950;5.346;2023-04-03T14:23:40;11.50;79.40
33903;DHT22;20194;50.950;5.346;2023-04-03T14:26:22;11.60;99.90
33903;DHT22;20194;50.950;5.346;2023-04-03T14:28:51;11.40;99.90
33903;DHT22;20194;50.950;5.346;2023-04-03T14:31:18;11.30;99.90
33903;DHT22;20194;50.950;5.346;2023-04-03T14:33:44;11.10;99.90
33903;DHT22;20194;50.950;5.346;2023-04-03T14:36:16;11.10;99.90
33903;DHT22;20194;50.950;5.346;2023-04-03T14:38:44;11.20;1.00
33903;DHT22;20194;50.950;5.346;2023-04-03T14:41:16;11.40;98.80
33903;DHT22;20194;50.950;5.346;2023-04-03T14:43:43;11.40;99.90
33903;DHT22;20194;50.950;5.346;2023-04-03T14:46:14;11.40;1.00
33903;DHT22;20194;50.950;5.346;2023-04-03T14:48:40;11.40;2.30
33903;DHT22;20194;50.950;5.346;2023-04-03T14:51:06;11.40;99.90
33903;DHT22;20194;50.950;5.346;2023-04-03T14:53:32;11.30;99.90
33903;DHT22;20194;50.950;5.346;2023-04-03T14:55:58;11.40;22.70
33903;DHT22;20194;50.950;5.346;2023-04-03T14:58:24;11.30;99.90
33903;DHT22;20194;50.950;5.346;2023-04-03T15:00:50;11.30;1.00
33903;DHT22;20194;50.950;5.346;2023-04-03T15:03:18;11.20;1.00
33903;DHT22;20194;50.950;5.346;2023-04-03T15:05:45;11.20;67.10
33903;DHT22;20194;50.950;5.346;2023-04-03T15:08:23;11.20;1.00
33903;DHT22;20194;50.950;5.346;2023-04-03T15:10:50;11.10;11.00
33903;DHT22;20194;50.950;5.346;2023-04-03T15:13:19;11.10;1.00
33903;DHT22;20194;50.950;5.346;2023-04-03T15:15:46;11.20;99.90
33903;DHT22;20194;50.950;5.346;2023-04-03T15:18:17;11.10;1.00
33903;DHT22;20194;50.950;5.346;2023-04-03T15:20:43;11.20;1.00
33903;DHT22;20194;50.950;5.346;2023-04-03T15:23:12;11.20;99.90
33903;DHT22;20194;50.950;5.346;2023-04-03T15:25:38;11.10;1.00
33903;DHT22;20194;50.950;5.346;2023-04-03T15:28:05;10.90;1.00
33903;DHT22;20194;50.950;5.346;2023-04-03T15:30:31;11.00;1.00
33903;DHT22;20194;50.950;5.346;2023-04-03T15:32:56;11.10;1.00
33903;DHT22;20194;50.950;5.346;2023-04-03T15:35:22;11.20;99.90
33903;DHT22;20194;50.950;5.346;2023-04-03T15:37:48;11.20;1.00
33903;DHT22;20194;50.950;5.346;2023-04-03T15:40:14;11.20;1.00
33903;DHT22;20194;50.950;5.346;2023-04-03T15:42:40;11.00;99.90
33903;DHT22;20194;50.950;5.346;2023-04-03T15:45:07;10.90;34.40
33903;DHT22;20194;50.950;5.346;2023-04-03T15:47:33;10.90;99.90
33903;DHT22;20194;50.950;5.346;2023-04-03T15:49:59;10.90;1.00
33903;DHT22;20194;50.950;5.346;2023-04-03T15:52:24;10.80;99.90
33903;DHT22;20194;50.950;5.346;2023-04-03T15:54:50;10.90;99.90
33903;DHT22;20194;50.950;5.346;2023-04-03T15:57:16;10.90;1.00
33903;DHT22;20194;50.950;5.346;2023-04-03T15:59:41;10.90;1.00
33903;DHT22;20194;50.950;5.346;2023-04-03T16:02:08;11.00;9.40
33903;DHT22;20194;50.950;5.346;2023-04-03T16:04:38;10.90;1.00
33903;DHT22;20194;50.950;5.346;2023-04-03T16:07:04;10.70;99.90
33903;DHT22;20194;50.950;5.346;2023-04-03T16:09:31;10.60;1.00
33903;DHT22;20194;50.950;5.346;2023-04-03T16:11:57;10.60;1.00
33903;DHT22;20194;50.950;5.346;2023-04-03T16:14:24;10.70;1.00
33903;DHT22;20194;50.950;5.346;2023-04-03T16:16:50;10.60;99.90
33903;DHT22;20194;50.950;5.346;2023-04-03T16:19:15;10.60;99.90
33903;DHT22;20194;50.950;5.346;2023-04-03T16:21:41;10.70;99.90
33903;DHT22;20194;50.950;5.346;2023-04-03T16:24:07;10.60;99.90
33903;DHT22;20194;50.950;5.346;2023-04-03T16:26:33;10.60;99.90
33903;DHT22;20194;50.950;5.346;2023-04-03T16:28:59;10.60;99.90
33903;DHT22;20194;50.950;5.346;2023-04-03T16:31:26;10.70;1.00
33903;DHT22;20194;50.950;5.346;2023-04-03T16:33:52;10.60;1.00
33903;DHT22;20194;50.950;5.346;2023-04-03T16:36:18;10.50;1.00
33903;DHT22;20194;50.950;5.346;2023-04-03T16:38:43;10.50;1.00
33903;DHT22;20194;50.950;5.346;2023-04-03T16:41:09;10.60;1.00
33903;DHT22;20194;50.950;5.346;2023-04-03T16:43:35;10.50;99.90
33903;DHT22;20194;50.950;5.346;2023-04-03T16:46:02;10.50;1.00
33903;DHT22;20194;50.950;5.346;2023-04-03T16:48:29;10.50;1.00
33903;DHT22;20194;50.950;5.346;2023-04-03T16:50:55;10.50;99.90
33903;DHT22;20194;50.950;5.346;2023-04-03T16:53:22;10.40;99.90
33903;DHT22;20194;50.950;5.346;2023-04-03T16:55:49;10.40;99.90
33903;DHT22;20194;50.950;5.346;2023-04-03T16:58:15;10.40;99.90
33903;DHT22;20194;50.950;5.346;2023-04-03T17:00:42;10.20;1.00
33903;DHT22;20194;50.950;5.346;2023-04-03T17:03:08;10.30;1.00
33903;DHT22;20194;50.950;5.346;2023-04-03T17:05:33;10.20;1.00
33903;DHT22;20194;50.950;5.346;2023-04-03T17:07:59;10.20;1.00
33903;DHT22;20194;50.950;5.346;2023-04-03T17:10:27;10.10;99.80
33903;DHT22;20194;50.950;5.346;2023-04-03T17:12:52;10.20;99.90
33903;DHT22;20194;50.950;5.346;2023-04-03T17:15:18;10.10;99.90
33903;DHT22;20194;50.950;5.346;2023-04-03T17:17:46;10.10;99.90
33903;DHT22;20194;50.950;5.346;2023-04-03T17:20:12;10.10;20.70
33903;DHT22;20194;50.950;5.346;2023-04-03T17:22:38;10.10;99.90